sensor_id;sensor_type;location;lat;lon;timestamp;temperature;humidity
43414;DHT22;29013;49.676;8.606;2022-07-06T04:42:11;16.6;90.9
43414;DHT22;29013;49.676;8.606;2022-07-06T04:47:40;16.6;90.6
43414;DHT22;29013;49.676;8.606;2022-07-06T04:53:04;16.9;89.4
43414;DHT22;29013;49.676;8.606;2022-07-06T04:58:28;17.0;89.2
43414;DHT22;29013;49.676;8.606;2022-07-06T05:03:58;17.1;88.6
43414;DHT22;29013;49.676;8.606;2022-07-06T05:09:23;17.3;88.2
43414;DHT22;29013;49.676;8.606;2022-07-06T05:14:51;17.3;88.0
43414;DHT22;29013;49.676;8.606;2022-07-06T05:20:20;17.4;88.5
43414;DHT22;29013;49.676;8.606;2022-07-06T05:25:48;17.4;88.5
43414;DHT22;29013;49.676;8.606;2022-07-06T05:31:11;17.5;88.9
43414;DHT22;29013;49.676;8.606;2022-07-06T05:36:35;17.5;88.5
43414;DHT22;29013;49.676;8.606;2022-07-06T05:42:03;17.7;88.0
43414;DHT22;29013;49.676;8.606;2022-07-06T05:47:25;17.9;86.9
43414;DHT22;29013;49.676;8.606;2022-07-06T05:52:59;18.1;86.4
43414;DHT22;29013;49.676;8.606;2022-07-06T05:58:20;18.4;85.3
43414;DHT22;29013;49.676;8.606;2022-07-06T06:03:41;18.6;84.3
43414;DHT22;29013;49.676;8.606;2022-07-06T06:09:05;19.0;82.3
43414;DHT22;29013;49.676;8.606;2022-07-06T06:14:33;19.3;82.0
43414;DHT22;29013;49.676;8.606;2022-07-06T06:19:59;19.6;81.2
43414;DHT22;29013;49.676;8.606;2022-07-06T06:25:27;20.0;80.4
43414;DHT22;29013;49.676;8.606;2022-07-06T06:30:48;20.3;79.2
43414;DHT22;29013;49.676;8.606;2022-07-06T06:36:11;20.5;77.6
43414;DHT22;29013;49.676;8.606;2022-07-06T06:41:39;20.8;77.9
43414;DHT22;29013;49.676;8.606;2022-07-06T06:47:06;21.0;76.3
43414;DHT22;29013;49.676;8.606;2022-07-06T06:52:34;21.3;75.2
43414;DHT22;29013;49.676;8.606;2022-07-06T06:58:02;21.4;75.2
43414;DHT22;29013;49.676;8.606;2022-07-06T07:03:28;21.6;74.9
43414;DHT22;29013;49.676;8.606;2022-07-06T07:08:55;21.8;73.3
43414;DHT22;29013;49.676;8.606;2022-07-06T07:14:22;22.0;72.6
43414;DHT22;29013;49.676;8.606;2022-07-06T07:19:49;22.3;71.8
43414;DHT22;29013;49.676;8.606;2022-07-06T07:25:16;22.6;71.2
43414;DHT22;29013;49.676;8.606;2022-07-06T07:30:42;22.9;70.5
43414;DHT22;29013;49.676;8.606;2022-07-06T07:36:11;23.1;69.2
43414;DHT22;29013;49.676;8.606;2022-07-06T07:41:38;23.3;70.2
43414;DHT22;29013;49.676;8.606;2022-07-06T07:47:07;23.6;68.0
43414;DHT22;29013;49.676;8.606;2022-07-06T07:52:33;23.7;67.1
43414;DHT22;29013;49.676;8.606;2022-07-06T07:57:59;23.9;66.5
43414;DHT22;29013;49.676;8.606;2022-07-06T08:03:26;23.9;66.1
43414;DHT22;29013;49.676;8.606;2022-07-06T08:08:54;24.1;64.8
43414;DHT22;29013;49.676;8.606;2022-07-06T08:14:16;24.2;63.2
43414;DHT22;29013;49.676;8.606;2022-07-06T08:19:43;23.4;62.6
43414;DHT22;29013;49.676;8.606;2022-07-06T08:25:11;22.9;63.6
43414;DHT22;29013;49.676;8.606;2022-07-06T08:30:34;23.1;64.8
43414;DHT22;29013;49.676;8.606;2022-07-06T08:36:00;23.5;65.0
43414;DHT22;29013;49.676;8.606;2022-07-06T08:41:28;23.8;65.1
43414;DHT22;29013;49.676;8.606;2022-07-06T08:46:58;23.8;63.4
43414;DHT22;29013;49.676;8.606;2022-07-06T08:52:25;23.1;63.4
43414;DHT22;29013;49.676;8.606;2022-07-06T08:57:50;22.7;64.6
43414;DHT22;29013;49.676;8.606;2022-07-06T09:03:15;22.7;64.5
43414;DHT22;29013;49.676;8.606;2022-07-06T09:08:41;22.8;63.6
43414;DHT22;29013;49.676;8.606;2022-07-06T09:14:08;23.3;64.0
43414;DHT22;29013;49.676;8.606;2022-07-06T09:19:31;24.0;63.3
43414;DHT22;29013;49.676;8.606;2022-07-06T09:24:55;24.5;61.4
43414;DHT22;29013;49.676;8.606;2022-07-06T09:30:20;25.0;60.4
43414;DHT22;29013;49.676;8.606;2022-07-06T09:35:44;25.1;58.6
43414;DHT22;29013;49.676;8.606;2022-07-06T09:41:10;25.4;60.3
43414;DHT22;29013;49.676;8.606;2022-07-06T09:46:41;25.8;56.8
43414;DHT22;29013;49.676;8.606;2022-07-06T09:52:09;25.8;58.4
43414;DHT22;29013;49.676;8.606;2022-07-06T09:57:33;26.0;56.8
43414;DHT22;29013;49.676;8.606;2022-07-06T10:02:58;26.2;57.0
43414;DHT22;29013;49.676;8.606;2022-07-06T10:08:24;26.3;53.9
43414;DHT22;29013;49.676;8.606;2022-07-06T10:13:56;26.1;56.1
43414;DHT22;29013;49.676;8.606;2022-07-06T10:19:20;26.2;54.0
43414;DHT22;29013;49.676;8.606;2022-07-06T10:24:47;25.6;53.4
43414;DHT22;29013;49.676;8.606;2022-07-06T10:30:13;25.3;56.6
43414;DHT22;29013;49.676;8.606;2022-07-06T10:35:34;25.6;57.2
43414;DHT22;29013;49.676;8.606;2022-07-06T10:41:03;25.4;55.4
43414;DHT22;29013;49.676;8.606;2022-07-06T10:46:27;25.1;55.2
43414;DHT22;29013;49.676;8.606;2022-07-06T10:51:52;25.3;54.8
43414;DHT22;29013;49.676;8.606;2022-07-06T10:57:19;25.3;53.4
43414;DHT22;29013;49.676;8.606;2022-07-06T11:02:42;25.5;53.9
43414;DHT22;29013;49.676;8.606;2022-07-06T11:08:10;25.5;52.9
43414;DHT22;29013;49.676;8.606;2022-07-06T11:13:43;25.3;54.0
43414;DHT22;29013;49.676;8.606;2022-07-06T11:19:15;25.0;54.0
43414;DHT22;29013;49.676;8.606;2022-07-06T11:24:41;24.9;54.2
43414;DHT22;29013;49.676;8.606;2022-07-06T11:30:07;24.8;51.0
43414;DHT22;29013;49.676;8.606;2022-07-06T11:35:30;24.9;51.6
43414;DHT22;29013;49.676;8.606;2022-07-06T11:40:58;24.5;50.8
43414;DHT22;29013;49.676;8.606;2022-07-06T11:46:26;24.6;50.6
43414;DHT22;29013;49.676;8.606;2022-07-06T11:51:48;24.9;50.6
43414;DHT22;29013;49.676;8.606;2022-07-06T11:57:14;24.6;49.9
43414;DHT22;29013;49.676;8.606;2022-07-06T12:02:42;24.9;50.8
43414;DHT22;29013;49.676;8.606;2022-07-06T12:08:08;24.5;48.7
43414;DHT22;29013;49.676;8.606;2022-07-06T12:13:39;24.4;48.9
43414;DHT22;29013;49.676;8.606;2022-07-06T12:19:05;24.6;49.4
43414;DHT22;29013;49.676;8.606;2022-07-06T12:24:33;25.0;49.0
43414;DHT22;29013;49.676;8.606;2022-07-06T12:30:09;24.7;50.0
43414;DHT22;29013;49.676;8.606;2022-07-06T12:35:30;24.4;50.3
43414;DHT22;29013;49.676;8.606;2022-07-06T12:41:00;24.3;50.8
43414;DHT22;29013;49.676;8.606;2022-07-06T12:46:28;24.5;50.5
43414;DHT22;29013;49.676;8.606;2022-07-06T12:52:01;24.4;49.2
43414;DHT22;29013;49.676;8.606;2022-07-06T12:57:26;24.3;50.7
43414;DHT22;29013;49.676;8.606;2022-07-06T13:02:53;24.5;49.8
43414;DHT22;29013;49.676;8.606;2022-07-06T13:08:17;24.7;49.2
43414;DHT22;29013;49.676;8.606;2022-07-06T13:13:47;24.9;47.5
43414;DHT22;29013;49.676;8.606;2022-07-06T13:19:12;24.9;48.2
43414;DHT22;29013;49.676;8.606;2022-07-06T13:24:36;24.6;47.7
43414;DHT22;29013;49.676;8.606;2022-07-06T13:30:05;24.7;47.2
43414;DHT22;29013;49.676;8.606;2022-07-06T13:35:30;24.7;46.3
43414;DHT22;29013;49.676;8.606;2022-07-06T13:40:57;24.8;46.8
43414;DHT22;29013;49.676;8.606;2022-07-06T13:46:21;24.6;47.5
43414;DHT22;29013;49.676;8.606;2022-07-06T13:51:48;24.7;47.9
43414;DHT22;29013;49.676;8.606;2022-07-06T13:57:15;24.5;47.2
43414;DHT22;29013;49.676;8.606;2022-07-06T14:02:42;24.5;47.7
43414;DHT22;29013;49.676;8.606;2022-07-06T14:08:10;24.4;49.0
43414;DHT22;29013;49.676;8.606;2022-07-06T14:13:38;24.5;48.9
43414;DHT22;29013;49.676;8.606;2022-07-06T14:19:01;24.4;48.8
43414;DHT22;29013;49.676;8.606;2022-07-06T14:24:27;24.3;48.7
43414;DHT22;29013;49.676;8.606;2022-07-06T14:29:54;24.2;48.8
43414;DHT22;29013;49.676;8.606;2022-07-06T14:35:20;24.2;48.4
43414;DHT22;29013;49.676;8.606;2022-07-06T14:40:48;24.2;47.9
43414;DHT22;29013;49.676;8.606;2022-07-06T14:46:13;24.1;48.9
43414;DHT22;29013;49.676;8.606;2022-07-06T14:51:40;24.1;48.8
43414;DHT22;29013;49.676;8.606;2022-07-06T14:57:08;24.0;49.2
43414;DHT22;29013;49.676;8.606;2022-07-06T15:02:39;24.1;50.8
43414;DHT22;29013;49.676;8.606;2022-07-06T15:08:04;24.2;50.0
43414;DHT22;29013;49.676;8.606;2022-07-06T15:13:29;24.2;50.4
43414;DHT22;29013;49.676;8.606;2022-07-06T15:18:56;24.1;49.9
43414;DHT22;29013;49.676;8.606;2022-07-06T15:24:19;23.9;49.9
43414;DHT22;29013;49.676;8.606;2022-07-06T15:29:46;23.7;50.3
43414;DHT22;29013;49.676;8.606;2022-07-06T15:35:13;23.6;50.5
43414;DHT22;29013;49.676;8.606;2022-07-06T15:40:41;23.5;50.4
43414;DHT22;29013;49.676;8.606;2022-07-06T15:46:08;23.1;50.7
43414;DHT22;29013;49.676;8.606;2022-07-06T15:51:33;23.1;51.3
43414;DHT22;29013;49.676;8.606;2022-07-06T15:56:55;23.1;51.1
43414;DHT22;29013;49.676;8.606;2022-07-06T16:02:19;23.1;52.0
43414;DHT22;29013;49.676;8.606;2022-07-06T16:07:47;23.0;52.1
43414;DHT22;29013;49.676;8.606;2022-07-06T16:13:19;23.0;52.0
43414;DHT22;29013;49.676;8.606;2022-07-06T16:18:44;22.8;52.5
43414;DHT22;29013;49.676;8.606;2022-07-06T16:24:12;22.7;52.5
43414;DHT22;29013;49.676;8.606;2022-07-06T16:29:34;22.7;52.2
43414;DHT22;29013;49.676;8.606;2022-07-06T16:35:03;22.6;51.9
43414;DHT22;29013;49.676;8.606;2022-07-06T16:40:25;22.7;53.0
43414;DHT22;29013;49.676;8.606;2022-07-06T16:45:53;22.6;52.0
43414;DHT22;29013;49.676;8.606;2022-07-06T16:51:18;22.6;52.1
43414;DHT22;29013;49.676;8.606;2022-07-06T16:56:45;22.6;52.3
43414;DHT22;29013;49.676;8.606;2022-07-06T17:02:07;22.7;52.3
43414;DHT22;29013;49.676;8.606;2022-07-06T17:07:31;22.7;52.0
43414;DHT22;29013;49.676;8.606;2022-07-06T17:12:58;22.7;51.9
43414;DHT22;29013;49.676;8.606;2022-07-06T17:18:25;22.4;51.0
43414;DHT22;29013;49.676;8.606;2022-07-06T17:23:47;22.3;52.1
43414;DHT22;29013;49.676;8.606;2022-07-06T17:29:13;22.3;52.3
43414;DHT22;29013;49.676;8.606;2022-07-06T17:34:40;22.3;52.3
43414;DHT22;29013;49.676;8.606;2022-07-06T17:40:09;22.3;52.0
43414;DHT22;29013;49.676;8.606;2022-07-06T17:45:31;22.2;52.0
43414;DHT22;29013;49.676;8.606;2022-07-06T17:50:53;22.2;52.6
43414;DHT22;29013;49.676;8.606;2022-07-06T17:56:20;21.9;52.4
43414;DHT22;29013;49.676;8.606;2022-07-06T18:01:47;21.8;52.6
43414;DHT22;29013;49.676;8.606;2022-07-06T18:07:16;21.9;54.0
43414;DHT22;29013;49.676;8.606;2022-07-06T18:12:44;21.9;53.1
43414;DHT22;29013;49.676;8.606;2022-07-06T18:18:10;21.8;53.4
43414;DHT22;29013;49.676;8.606;2022-07-06T18:23:39;21.7;54.2
43414;DHT22;29013;49.676;8.606;2022-07-06T18:29:07;21.6;54.1
43414;DHT22;29013;49.676;8.606;2022-07-06T18:34:35;21.6;54.4
43414;DHT22;29013;49.676;8.606;2022-07-06T18:40:00;21.5;54.4
43414;DHT22;29013;49.676;8.606;2022-07-06T18:45:26;21.6;54.8
43414;DHT22;29013;49.676;8.606;2022-07-06T18:50:54;21.4;55.1
43414;DHT22;29013;49.676;8.606;2022-07-06T18:56:20;21.3;55.1
43414;DHT22;29013;49.676;8.606;2022-07-06T19:01:42;21.2;55.6
43414;DHT22;29013;49.676;8.606;2022-07-06T19:07:09;21.2;56.1
43414;DHT22;29013;49.676;8.606;2022-07-06T19:32:11;19.8;59.0
43414;DHT22;29013;49.676;8.606;2022-07-06T19:37:39;19.9;59.7
43414;DHT22;29013;49.676;8.606;2022-07-06T19:43:08;20.0;59.8
43414;DHT22;29013;49.676;8.606;2022-07-06T19:48:35;20.1;59.9
43414;DHT22;29013;49.676;8.606;2022-07-06T19:53:57;20.0;60.0
43414;DHT22;29013;49.676;8.606;2022-07-06T19:59:19;20.0;60.1
43414;DHT22;29013;49.676;8.606;2022-07-06T20:04:40;19.9;60.7
43414;DHT22;29013;49.676;8.606;2022-07-06T20:10:09;19.8;61.1
43414;DHT22;29013;49.676;8.606;2022-07-06T20:15:34;19.7;61.0
43414;DHT22;29013;49.676;8.606;2022-07-06T20:20:59;19.6;61.9
43414;DHT22;29013;49.676;8.606;2022-07-06T20:26:25;19.5;62.8
43414;DHT22;29013;49.676;8.606;2022-07-06T20:31:51;19.4;62.4
43414;DHT22;29013;49.676;8.606;2022-07-06T20:37:18;19.2;62.2
43414;DHT22;29013;49.676;8.606;2022-07-06T20:42:43;19.1;62.5
43414;DHT22;29013;49.676;8.606;2022-07-06T20:48:10;19.1;62.8
43414;DHT22;29013;49.676;8.606;2022-07-06T20:53:36;19.1;63.0
43414;DHT22;29013;49.676;8.606;2022-07-06T20:59:03;19.0;62.8
43414;DHT22;29013;49.676;8.606;2022-07-06T21:04:27;19.0;62.6
43414;DHT22;29013;49.676;8.606;2022-07-06T21:09:55;18.9;63.0
43414;DHT22;29013;49.676;8.606;2022-07-06T21:15:17;18.9;63.2
43414;DHT22;29013;49.676;8.606;2022-07-06T21:20:39;18.7;64.5
43414;DHT22;29013;49.676;8.606;2022-07-06T21:26:01;18.6;64.3
43414;DHT22;29013;49.676;8.606;2022-07-06T21:31:23;18.6;64.1
43414;DHT22;29013;49.676;8.606;2022-07-06T21:36:45;18.5;64.3
43414;DHT22;29013;49.676;8.606;2022-07-06T21:42:08;18.5;65.4
43414;DHT22;29013;49.676;8.606;2022-07-06T21:47:29;18.4;65.0
43414;DHT22;29013;49.676;8.606;2022-07-06T21:52:51;18.3;65.4
43414;DHT22;29013;49.676;8.606;2022-07-06T21:58:13;18.2;65.8
43414;DHT22;29013;49.676;8.606;2022-07-06T22:03:34;18.1;65.9
43414;DHT22;29013;49.676;8.606;2022-07-06T22:08:56;18.1;66.0
43414;DHT22;29013;49.676;8.606;2022-07-06T22:14:17;18.1;65.6
43414;DHT22;29013;49.676;8.606;2022-07-06T22:19:39;18.1;65.7
43414;DHT22;29013;49.676;8.606;2022-07-06T22:25:16;18.1;66.0
43414;DHT22;29013;49.676;8.606;2022-07-06T22:30:41;18.1;65.9
43414;DHT22;29013;49.676;8.606;2022-07-06T22:36:03;18.1;66.1
43414;DHT22;29013;49.676;8.606;2022-07-06T22:41:24;18.1;66.1
43414;DHT22;29013;49.676;8.606;2022-07-06T22:46:46;18.2;66.0
43414;DHT22;29013;49.676;8.606;2022-07-06T22:52:09;18.1;66.8
43414;DHT22;29013;49.676;8.606;2022-07-06T22:57:30;18.1;66.5
43414;DHT22;29013;49.676;8.606;2022-07-06T23:02:53;18.1;66.7
43414;DHT22;29013;49.676;8.606;2022-07-06T23:08:15;18.1;66.6
43414;DHT22;29013;49.676;8.606;2022-07-06T23:13:38;18.1;66.9
43414;DHT22;29013;49.676;8.606;2022-07-06T23:19:00;18.0;67.0
43414;DHT22;29013;49.676;8.606;2022-07-06T23:24:22;18.0;67.1
43414;DHT22;29013;49.676;8.606;2022-07-06T23:29:45;18.0;67.3
43414;DHT22;29013;49.676;8.606;2022-07-06T23:35:09;18.0;68.0
43414;DHT22;29013;49.676;8.606;2022-07-06T23:40:30;18.0;68.5
43414;DHT22;29013;49.676;8.606;2022-07-06T23:45:57;17.9;68.9
43414;DHT22;29013;49.676;8.606;2022-07-06T23:51:23;17.8;70.1
43414;DHT22;29013;49.676;8.606;2022-07-06T23:56:48;17.8;70.2
